Slavonski Brod, Croatia
Current Conditions -  °F | °C
As of 9:30 AM on Friday 31 Oct 2014 (Local Time) from LDOS Reporting Station
Haze Haze  
Wind Chill: 42°   Ceiling: Unl
Heat Index: 46°   Visibility: 3mi
Dew Point: 43°   Wind: 9mph
Humidity: 87%   Direction: 290°WNW
Pressure: 30.36"   Gusts: NA
Location:  45.16°N, 18.01°E
Report Text: LDOS 310830Z 29008KT 5000 BR NSC 08/06 Q1028
Loading
Personal Weather Stations






























Interactive Weather Map
Tropical Storm Tracking
New forecast layout! Learn more

10-Day Weather Forecast

Advertisements
Track Severe Weather on mobile